createdAt,value
2023-04-15T00:00:30.600Z,2.5
2023-04-15T00:01:30.987Z,2.5
2023-04-15T00:02:31.500Z,2.5
2023-04-15T00:03:32.166Z,2.5
2023-04-15T00:04:32.690Z,2.5
2023-04-15T00:05:33.115Z,2.5
2023-04-15T00:06:33.510Z,2.5
2023-04-15T00:07:33.914Z,2.5
2023-04-15T00:08:34.306Z,2.5
2023-04-15T00:09:34.714Z,2.5
2023-04-15T00:10:35.098Z,2.5
2023-04-15T00:11:35.497Z,2.5
2023-04-15T00:12:35.903Z,2.5
2023-04-15T00:13:36.285Z,2.5
2023-04-15T00:14:36.684Z,2.5
2023-04-15T00:15:37.066Z,2.4
2023-04-15T00:16:37.482Z,2.4
2023-04-15T00:17:37.971Z,2.4
2023-04-15T00:18:38.384Z,2.4
2023-04-15T00:19:38.777Z,2.4
2023-04-15T00:20:39.176Z,2.4
2023-04-15T00:21:39.586Z,2.4
2023-04-15T00:22:39.991Z,2.4
2023-04-15T00:23:40.369Z,2.4
2023-04-15T00:24:40.756Z,2.4
2023-04-15T00:25:41.154Z,2.3
2023-04-15T00:26:41.536Z,2.3
2023-04-15T00:27:41.940Z,2.3
2023-04-15T00:28:42.323Z,2.3
2023-04-15T00:29:42.709Z,2.3
2023-04-15T00:30:43.193Z,2.3
2023-04-15T00:31:43.617Z,2.3
2023-04-15T00:32:44.114Z,2.3
2023-04-15T00:33:44.519Z,2.3
2023-04-15T00:34:44.915Z,2.3
2023-04-15T00:35:45.285Z,2.3
2023-04-15T00:36:45.684Z,2.3
2023-04-15T00:37:46.477Z,2.3
2023-04-15T00:38:46.936Z,2.3
2023-04-15T00:39:47.322Z,2.3
2023-04-15T00:40:47.714Z,2.3
2023-04-15T00:41:48.090Z,2.3
2023-04-15T00:42:48.530Z,2.3
2023-04-15T00:43:48.927Z,2.3
2023-04-15T00:44:49.293Z,2.3
2023-04-15T00:45:49.719Z,2.3
2023-04-15T00:46:50.130Z,2.3
2023-04-15T00:47:50.542Z,2.3
2023-04-15T00:48:51.038Z,2.3
2023-04-15T00:49:51.401Z,2.3
2023-04-15T00:50:51.859Z,2.3
2023-04-15T00:51:52.249Z,2.3
2023-04-15T00:52:52.760Z,2.3
2023-04-15T00:53:53.135Z,2.3
2023-04-15T00:54:53.506Z,2.3
2023-04-15T00:55:53.886Z,2.3
2023-04-15T00:56:54.279Z,2.3
2023-04-15T00:57:54.683Z,2.3
2023-04-15T00:58:55.065Z,2.2
2023-04-15T00:59:55.458Z,2.2
2023-04-15T01:00:55.890Z,2.2
2023-04-15T01:01:56.414Z,2.2
2023-04-15T01:02:56.978Z,2.2
2023-04-15T01:03:57.714Z,2.2
2023-04-15T01:04:58.206Z,2.1
2023-04-15T01:05:58.880Z,2.1
2023-04-15T01:06:59.672Z,2.1
2023-04-15T01:08:00.099Z,2.1
2023-04-15T01:09:00.763Z,2.1
2023-04-15T01:10:01.398Z,2.1
2023-04-15T01:11:01.833Z,2.1
2023-04-15T01:12:02.234Z,2.1
2023-04-15T01:13:02.724Z,2.1
2023-04-15T01:14:03.107Z,2.1
2023-04-15T01:15:03.502Z,2.1
2023-04-15T01:16:03.942Z,2.1
2023-04-15T01:17:04.382Z,2.1
2023-04-15T01:18:04.816Z,2
2023-04-15T01:19:05.202Z,2
2023-04-15T01:20:05.597Z,2
2023-04-15T01:21:05.985Z,1.9
2023-04-15T01:22:06.373Z,1.9
2023-04-15T01:23:06.765Z,1.9
2023-04-15T01:24:07.166Z,1.9
2023-04-15T01:25:07.569Z,1.9
2023-04-15T01:26:07.964Z,1.9
2023-04-15T01:27:08.410Z,1.9
2023-04-15T01:28:08.887Z,1.8
2023-04-15T01:29:09.280Z,1.8
2023-04-15T01:30:09.664Z,1.8
2023-04-15T01:31:10.107Z,1.8
2023-04-15T01:32:10.502Z,1.8
2023-04-15T01:33:10.908Z,1.7
2023-04-15T01:34:11.301Z,1.7
2023-04-15T01:35:11.681Z,1.6
2023-04-15T01:36:12.063Z,1.6
2023-04-15T01:37:12.439Z,1.6
2023-04-15T01:38:12.829Z,1.5
2023-04-15T01:39:13.214Z,1.5
2023-04-15T01:40:13.601Z,1.5
2023-04-15T01:41:13.995Z,1.5
2023-04-15T01:42:14.370Z,1.5
2023-04-15T01:43:14.868Z,1.5
2023-04-15T01:44:15.271Z,1.5
2023-04-15T01:45:15.673Z,1.4
2023-04-15T01:46:16.089Z,1.4
2023-04-15T01:47:16.525Z,1.4
2023-04-15T01:48:17.027Z,1.4
2023-04-15T01:49:17.418Z,1.4
2023-04-15T01:50:17.782Z,1.4
2023-04-15T01:51:18.164Z,1.4
2023-04-15T01:52:18.560Z,1.3
2023-04-15T01:53:18.968Z,1.3
2023-04-15T01:54:22.503Z,1.3
2023-04-15T01:55:22.902Z,1.3
2023-04-15T01:56:23.286Z,1.3
2023-04-15T01:57:23.678Z,1.4
2023-04-15T01:58:24.093Z,1.4
2023-04-15T01:59:24.440Z,1.4
2023-04-15T02:00:24.846Z,1.4
2023-04-15T02:01:25.317Z,1.4
2023-04-15T02:02:25.813Z,1.4
2023-04-15T02:03:26.437Z,1.4
2023-04-15T02:04:26.868Z,1.4
2023-04-15T02:05:27.263Z,1.3
2023-04-15T02:06:27.635Z,1.3
2023-04-15T02:07:28.015Z,1.3
2023-04-15T02:08:28.420Z,1.3
2023-04-15T02:09:28.801Z,1.3
2023-04-15T02:10:29.203Z,1.3
2023-04-15T02:11:29.589Z,1.3
2023-04-15T02:12:29.960Z,1.3
2023-04-15T02:13:30.434Z,1.2
2023-04-15T02:14:30.829Z,1.2
2023-04-15T02:15:31.217Z,1.2
2023-04-15T02:16:31.695Z,1.2
2023-04-15T02:17:32.171Z,1.2
2023-04-15T02:18:32.676Z,1.2
2023-04-15T02:19:33.056Z,1.2
2023-04-15T02:20:33.438Z,1.2
2023-04-15T02:21:33.831Z,1.2
2023-04-15T02:22:34.228Z,1.1
2023-04-15T02:23:34.641Z,1.1
2023-04-15T02:24:35.015Z,1.1
2023-04-15T02:25:35.393Z,1.1
2023-04-15T02:26:35.772Z,1.1
2023-04-15T02:27:36.147Z,1.1
2023-04-15T02:28:36.584Z,1.1
2023-04-15T02:29:36.962Z,1.1
2023-04-15T02:30:37.368Z,1.1
2023-04-15T02:31:37.761Z,1.1
2023-04-15T02:32:38.332Z,1.1
2023-04-15T02:33:38.841Z,1.1
2023-04-15T02:34:39.227Z,1.1
2023-04-15T02:35:39.618Z,1.1
2023-04-15T02:36:39.984Z,1.1
2023-04-15T02:37:40.350Z,1.1
2023-04-15T02:38:40.835Z,1.1
2023-04-15T02:39:41.216Z,1.1
2023-04-15T02:40:41.624Z,1.1
2023-04-15T02:41:42.012Z,1.1
2023-04-15T02:42:42.394Z,1.1
2023-04-15T02:43:42.927Z,1.1
2023-04-15T02:44:43.316Z,1.1
2023-04-15T02:45:43.804Z,1.1
2023-04-15T02:46:44.241Z,1.1
2023-04-15T02:47:44.663Z,1
2023-04-15T02:48:45.070Z,1
2023-04-15T02:49:45.439Z,1
2023-04-15T02:50:45.837Z,1
2023-04-15T02:51:46.224Z,1
2023-04-15T02:52:46.633Z,1
2023-04-15T02:53:47.030Z,1
2023-04-15T02:54:47.414Z,1
2023-04-15T02:55:47.805Z,1
2023-04-15T02:56:48.191Z,1
2023-04-15T02:57:48.570Z,0.9
2023-04-15T02:58:49.089Z,0.9
2023-04-15T02:59:49.478Z,0.9
2023-04-15T03:00:49.861Z,0.9
2023-04-15T03:01:50.327Z,0.9
2023-04-15T03:02:50.866Z,0.9
2023-04-15T03:03:51.637Z,0.9
2023-04-15T03:04:52.049Z,0.9
2023-04-15T03:05:52.441Z,0.8
2023-04-15T03:06:52.827Z,0.8
2023-04-15T03:07:53.197Z,0.8
2023-04-15T03:08:53.634Z,0.8
2023-04-15T03:09:54.041Z,0.8
2023-04-15T03:10:54.421Z,0.8
2023-04-15T03:11:54.852Z,0.8
2023-04-15T03:12:55.256Z,0.8
2023-04-15T03:13:55.689Z,0.8
2023-04-15T03:14:56.109Z,0.7
2023-04-15T03:15:56.545Z,0.7
2023-04-15T03:16:56.961Z,0.7
2023-04-15T03:17:57.430Z,0.7
2023-04-15T03:18:57.868Z,0.7
2023-04-15T03:19:58.301Z,0.7
2023-04-15T03:20:58.701Z,0.7
2023-04-15T03:21:59.113Z,0.7
2023-04-15T03:22:59.499Z,0.7
2023-04-15T03:23:59.914Z,0.7
2023-04-15T03:25:00.320Z,0.7
2023-04-15T03:26:00.664Z,0.7
2023-04-15T03:27:01.039Z,0.7
2023-04-15T03:28:01.408Z,0.7
2023-04-15T03:29:02.055Z,0.6
2023-04-15T03:30:02.576Z,0.6
2023-04-15T03:31:03.001Z,0.6
2023-04-15T03:32:03.409Z,0.6
2023-04-15T03:33:03.809Z,0.6
2023-04-15T03:34:04.245Z,0.6
2023-04-15T03:35:04.618Z,0.7
2023-04-15T03:36:05.004Z,0.7
2023-04-15T03:37:05.381Z,0.6
2023-04-15T03:38:05.771Z,0.6
2023-04-15T03:39:06.173Z,0.6
2023-04-15T03:40:06.556Z,0.5
2023-04-15T03:41:06.940Z,0.5
2023-04-15T03:42:07.318Z,0.5
2023-04-15T03:43:07.710Z,0.5
2023-04-15T03:44:08.239Z,0.5
2023-04-15T03:45:08.673Z,0.5
2023-04-15T03:46:09.141Z,0.5
2023-04-15T03:47:09.538Z,0.5
2023-04-15T03:48:17.426Z,0.5
2023-04-15T03:49:18.654Z,0.5
2023-04-15T03:50:19.029Z,0.5
2023-04-15T03:51:19.412Z,0.5
2023-04-15T03:52:19.856Z,0.5
2023-04-15T03:53:20.262Z,0.5
2023-04-15T03:54:20.684Z,0.5
2023-04-15T03:55:21.064Z,0.5
2023-04-15T03:56:21.475Z,0.5
2023-04-15T03:57:21.866Z,0.5
2023-04-15T03:58:22.266Z,0.5
2023-04-15T03:59:22.751Z,0.5
2023-04-15T04:00:23.125Z,0.5
2023-04-15T04:01:23.507Z,0.5
2023-04-15T04:02:24.078Z,0.5
2023-04-15T04:03:24.932Z,0.5
2023-04-15T04:04:25.510Z,0.5
2023-04-15T04:05:25.964Z,0.5
2023-04-15T04:06:26.360Z,0.5
2023-04-15T04:07:26.753Z,0.5
2023-04-15T04:08:27.142Z,0.5
2023-04-15T04:09:27.756Z,0.5
2023-04-15T04:10:28.140Z,0.5
2023-04-15T04:11:28.530Z,0.5
2023-04-15T04:12:28.927Z,0.5
2023-04-15T04:13:29.339Z,0.5
2023-04-15T04:14:29.738Z,0.5
2023-04-15T04:15:30.165Z,0.5
2023-04-15T04:16:30.612Z,0.5
2023-04-15T04:17:31.075Z,0.5
2023-04-15T04:18:31.488Z,0.4
2023-04-15T04:19:31.913Z,0.4
2023-04-15T04:20:32.302Z,0.4
2023-04-15T04:21:32.698Z,0.4
2023-04-15T04:22:33.091Z,0.5
2023-04-15T04:23:33.470Z,0.5
2023-04-15T04:24:33.886Z,0.5
2023-04-15T04:25:34.268Z,0.5
2023-04-15T04:26:34.640Z,0.5
2023-04-15T04:27:35.025Z,0.5
2023-04-15T04:28:35.433Z,0.5
2023-04-15T04:29:35.849Z,0.5
2023-04-15T04:30:36.240Z,0.5
2023-04-15T04:31:36.721Z,0.5
2023-04-15T04:32:37.163Z,0.5
2023-04-15T04:33:37.571Z,0.5
2023-04-15T04:34:37.982Z,0.5
2023-04-15T04:35:38.369Z,0.5
2023-04-15T04:36:38.754Z,0.4
2023-04-15T04:37:39.151Z,0.4
2023-04-15T04:38:39.535Z,0.4
2023-04-15T04:39:39.955Z,0.4
2023-04-15T04:40:40.334Z,0.4
2023-04-15T04:41:40.717Z,0.4
2023-04-15T04:42:41.117Z,0.4
2023-04-15T04:43:41.515Z,0.4
2023-04-15T04:44:41.964Z,0.4
2023-04-15T04:45:42.389Z,0.4
2023-04-15T04:46:42.804Z,0.4
2023-04-15T04:47:43.292Z,0.4
2023-04-15T04:48:44.437Z,0.4
2023-04-15T04:49:46.361Z,0.5
2023-04-15T04:50:46.734Z,0.5
2023-04-15T04:51:47.156Z,0.4
2023-04-15T04:52:47.544Z,0.4
2023-04-15T04:53:47.956Z,0.4
2023-04-15T04:54:48.371Z,0.4
2023-04-15T04:55:48.770Z,0.4
2023-04-15T04:56:49.160Z,0.5
2023-04-15T04:57:49.553Z,0.5
2023-04-15T04:58:49.940Z,0.5
2023-04-15T04:59:50.420Z,0.5
2023-04-15T05:00:50.877Z,0.6
2023-04-15T05:01:51.347Z,0.6
2023-04-15T05:02:51.945Z,0.6
2023-04-15T05:03:52.399Z,0.6
2023-04-15T05:04:52.926Z,0.6
2023-04-15T05:05:53.309Z,0.6
2023-04-15T05:06:53.714Z,0.6
2023-04-15T05:07:54.098Z,0.7
2023-04-15T05:08:54.493Z,0.7
2023-04-15T05:09:54.911Z,0.7
2023-04-15T05:10:55.293Z,0.7
2023-04-15T05:11:55.635Z,0.7
2023-04-15T05:12:56.020Z,0.7
2023-04-15T05:13:56.431Z,0.8
2023-04-15T05:14:56.951Z,0.8
2023-04-15T05:15:57.383Z,0.8
2023-04-15T05:16:57.829Z,0.8
2023-04-15T05:17:58.270Z,0.8
2023-04-15T05:18:58.767Z,0.9
2023-04-15T05:19:59.317Z,0.9
2023-04-15T05:20:59.712Z,0.9
2023-04-15T05:22:00.120Z,0.9
2023-04-15T05:23:01.369Z,1
2023-04-15T05:24:01.766Z,1
2023-04-15T05:25:02.206Z,1
2023-04-15T05:26:02.644Z,1.1
2023-04-15T05:27:03.027Z,1.1
2023-04-15T05:28:03.406Z,1.1
2023-04-15T05:29:03.947Z,1.1
2023-04-15T05:30:04.587Z,1.1
2023-04-15T05:31:04.974Z,1.2
2023-04-15T05:32:05.455Z,1.2
2023-04-15T05:33:05.843Z,1.3
2023-04-15T05:34:06.207Z,1.3
2023-04-15T05:35:06.625Z,1.3
2023-04-15T05:36:07.012Z,1.4
2023-04-15T05:37:07.413Z,1.4
2023-04-15T05:38:07.799Z,1.4
2023-04-15T05:39:08.178Z,1.5
2023-04-15T05:40:08.589Z,1.5
2023-04-15T05:41:08.983Z,1.6
2023-04-15T05:42:09.364Z,1.7
2023-04-15T05:43:09.749Z,1.7
2023-04-15T05:44:10.231Z,1.8
2023-04-15T05:45:10.794Z,1.8
2023-04-15T05:46:11.205Z,1.9
2023-04-15T05:47:11.608Z,1.9
2023-04-15T05:48:12.021Z,2
2023-04-15T05:49:12.415Z,2
2023-04-15T05:50:12.866Z,2
2023-04-15T05:51:13.329Z,2.1
2023-04-15T05:52:13.707Z,2.1
2023-04-15T05:53:14.099Z,2.2
2023-04-15T05:54:14.488Z,2.2
2023-04-15T05:55:14.893Z,2.3
2023-04-15T05:56:15.276Z,2.4
2023-04-15T05:57:15.667Z,2.4
2023-04-15T05:58:16.057Z,2.5
2023-04-15T05:59:16.459Z,2.5
2023-04-15T06:00:16.869Z,2.6
2023-04-15T06:01:17.247Z,2.7
2023-04-15T06:02:17.777Z,2.7
2023-04-15T06:03:18.447Z,2.8
2023-04-15T06:04:19.018Z,2.8
2023-04-15T06:05:19.479Z,2.9
2023-04-15T06:06:19.875Z,2.9
2023-04-15T06:07:20.270Z,3
2023-04-15T06:08:20.668Z,3.1
2023-04-15T06:09:21.063Z,3.2
2023-04-15T06:10:21.486Z,3.2
2023-04-15T06:11:21.866Z,3.3
2023-04-15T06:12:22.263Z,3.3
2023-04-15T06:13:22.649Z,3.4
2023-04-15T06:14:23.028Z,3.5
2023-04-15T06:15:23.509Z,3.6
2023-04-15T06:16:23.926Z,3.7
2023-04-15T06:17:24.397Z,3.8
2023-04-15T06:18:24.781Z,3.9
2023-04-15T06:19:25.160Z,4
2023-04-15T06:20:25.558Z,4.1
2023-04-15T06:21:25.958Z,4.1
2023-04-15T06:22:26.363Z,4.2
2023-04-15T06:23:27.645Z,4.3
2023-04-15T06:24:28.471Z,4.3
2023-04-15T06:25:28.895Z,4.4
2023-04-15T06:26:29.283Z,4.5
2023-04-15T06:27:29.667Z,4.5
2023-04-15T06:28:30.062Z,4.6
2023-04-15T06:29:30.490Z,4.6
2023-04-15T06:30:30.886Z,4.7
2023-04-15T06:31:31.322Z,4.7
2023-04-15T06:32:31.779Z,4.7
2023-04-15T06:33:32.176Z,4.8
2023-04-15T06:34:32.570Z,4.8
2023-04-15T06:35:33.012Z,4.9
2023-04-15T06:36:33.388Z,4.9
2023-04-15T06:37:33.767Z,5
2023-04-15T06:38:34.153Z,5
2023-04-15T06:39:34.535Z,5
2023-04-15T06:40:35.055Z,5.1
2023-04-15T06:41:35.476Z,5.1
2023-04-15T06:42:35.882Z,5.2
2023-04-15T06:43:36.282Z,5.2
2023-04-15T06:44:36.667Z,5.2
2023-04-15T06:45:37.104Z,5.3
2023-04-15T06:46:37.545Z,5.3
2023-04-15T06:47:38.017Z,5.4
2023-04-15T06:48:38.481Z,5.4
2023-04-15T06:49:38.872Z,5.4
2023-04-15T06:50:39.267Z,5.5
2023-04-15T06:51:39.648Z,5.5
2023-04-15T06:52:40.030Z,5.5
2023-04-15T06:53:40.434Z,5.6
2023-04-15T06:54:40.820Z,5.6
2023-04-15T06:55:41.226Z,5.7
2023-04-15T06:56:41.612Z,5.7
2023-04-15T06:57:42.019Z,5.8
2023-04-15T06:58:42.405Z,5.8
2023-04-15T06:59:42.800Z,5.9
2023-04-15T07:00:43.327Z,5.9
2023-04-15T07:01:43.762Z,6
2023-04-15T07:02:44.271Z,6
2023-04-15T07:03:44.732Z,6.1
2023-04-15T07:04:45.096Z,6.1
2023-04-15T07:05:45.518Z,6.2
2023-04-15T07:06:45.986Z,6.2
2023-04-15T07:07:46.493Z,6.3
2023-04-15T07:08:46.878Z,6.3
2023-04-15T07:09:47.268Z,6.4
2023-04-15T07:10:47.691Z,6.4
2023-04-15T07:11:48.092Z,6.4
2023-04-15T07:12:48.501Z,6.5
2023-04-15T07:13:48.893Z,6.5
2023-04-15T07:14:49.283Z,6.5
2023-04-15T07:15:49.768Z,6.6
2023-04-15T07:16:50.196Z,6.6
2023-04-15T07:17:50.701Z,6.7
2023-04-15T07:18:51.120Z,6.7
2023-04-15T07:19:51.534Z,6.8
2023-04-15T07:20:52.025Z,6.9
2023-04-15T07:21:52.396Z,6.9
2023-04-15T07:22:52.859Z,7
2023-04-15T07:23:53.247Z,7
2023-04-15T07:24:53.646Z,7.1
2023-04-15T07:25:54.080Z,7.1
2023-04-15T07:26:54.593Z,7.2
2023-04-15T07:27:55.001Z,7.2
2023-04-15T07:28:55.404Z,7.2
2023-04-15T07:29:55.782Z,7.3
2023-04-15T07:30:58.724Z,7.3
2023-04-15T07:31:59.140Z,7.3
2023-04-15T07:32:59.575Z,7.4
2023-04-15T07:33:59.966Z,7.5
2023-04-15T07:35:00.380Z,7.5
2023-04-15T07:36:00.769Z,7.6
2023-04-15T07:37:01.163Z,7.6
2023-04-15T07:38:01.642Z,7.7
2023-04-15T07:39:02.228Z,7.7
2023-04-15T07:40:02.793Z,7.8
2023-04-15T07:41:03.193Z,7.8
2023-04-15T07:42:03.611Z,7.9
2023-04-15T07:43:04.004Z,7.9
2023-04-15T07:44:04.395Z,7.9
2023-04-15T07:45:04.762Z,7.9
2023-04-15T07:46:05.154Z,7.9
2023-04-15T07:47:05.575Z,8
2023-04-15T07:48:05.978Z,8
2023-04-15T07:49:06.440Z,8
2023-04-15T07:50:06.816Z,8
2023-04-15T07:51:07.311Z,8
2023-04-15T07:52:07.713Z,8
2023-04-15T07:53:08.134Z,8.1
2023-04-15T07:54:08.518Z,8.1
2023-04-15T07:55:08.915Z,8.1
2023-04-15T07:56:09.361Z,8.1
2023-04-15T07:57:09.764Z,8.1
2023-04-15T07:58:10.160Z,8.1
2023-04-15T07:59:10.546Z,8.1
2023-04-15T08:00:11.052Z,8.1
2023-04-15T08:01:11.687Z,8.1
2023-04-15T08:02:12.165Z,8.1
2023-04-15T08:03:12.765Z,8.1
2023-04-15T08:04:13.437Z,8.1
2023-04-15T08:05:14.106Z,8.1
2023-04-15T08:06:14.651Z,8.2
2023-04-15T08:07:15.022Z,8.2
2023-04-15T08:08:15.397Z,8.3
2023-04-15T08:09:15.778Z,8.3
2023-04-15T08:10:16.180Z,8.3
2023-04-15T08:11:16.606Z,8.3
2023-04-15T08:12:16.999Z,8.3
2023-04-15T08:13:17.392Z,8.4
2023-04-15T08:14:17.781Z,8.4
2023-04-15T08:15:18.182Z,8.4
2023-04-15T08:16:18.680Z,8.4
2023-04-15T08:17:19.186Z,8.5
2023-04-15T08:18:19.600Z,8.5
2023-04-15T08:19:19.997Z,8.5
2023-04-15T08:20:20.374Z,8.6
2023-04-15T08:21:20.781Z,8.6
2023-04-15T08:22:21.984Z,8.6
2023-04-15T08:23:22.826Z,8.6
2023-04-15T08:24:23.211Z,8.7
2023-04-15T08:25:23.614Z,8.7
2023-04-15T08:26:24.112Z,8.8
2023-04-15T08:27:24.482Z,8.8
2023-04-15T08:28:24.871Z,8.9
2023-04-15T08:29:25.259Z,9
2023-04-15T08:30:25.658Z,9
2023-04-15T08:31:26.129Z,9
2023-04-15T08:32:26.546Z,9.1
2023-04-15T08:33:26.961Z,9.1
2023-04-15T08:34:27.334Z,9.2
2023-04-15T08:35:27.718Z,9.3
2023-04-15T08:36:28.110Z,9.3
2023-04-15T08:37:28.490Z,9.4
2023-04-15T08:38:28.880Z,9.5
2023-04-15T08:39:29.284Z,9.6
2023-04-15T08:40:29.663Z,9.6
2023-04-15T08:41:30.144Z,9.6
2023-04-15T08:42:30.534Z,9.7
2023-04-15T08:43:30.925Z,9.7
2023-04-15T08:44:31.306Z,9.7
2023-04-15T08:45:31.686Z,9.7
2023-04-15T08:46:32.101Z,9.7
2023-04-15T08:47:32.510Z,9.7
2023-04-15T08:48:32.918Z,9.7
2023-04-15T08:49:33.333Z,9.8
2023-04-15T08:50:33.765Z,9.8
2023-04-15T08:51:34.263Z,9.8
2023-04-15T08:52:34.660Z,9.8
2023-04-15T08:53:35.036Z,9.8
2023-04-15T08:54:35.418Z,9.8
2023-04-15T08:55:35.811Z,9.8
2023-04-15T08:56:36.242Z,9.8
2023-04-15T08:57:36.635Z,9.8
2023-04-15T08:58:37.018Z,9.8
2023-04-15T08:59:37.412Z,9.8
2023-04-15T09:00:37.787Z,9.8
2023-04-15T09:01:38.423Z,9.8
2023-04-15T09:02:39.277Z,9.8
2023-04-15T09:03:39.908Z,9.8
2023-04-15T09:04:40.387Z,9.9
2023-04-15T09:05:40.790Z,9.9
2023-04-15T09:06:41.220Z,9.9
2023-04-15T09:07:41.614Z,9.9
2023-04-15T09:08:41.996Z,9.9
2023-04-15T09:09:42.374Z,9.9
2023-04-15T09:10:42.766Z,9.9
2023-04-15T09:11:43.221Z,10
2023-04-15T09:12:43.600Z,10
2023-04-15T09:13:43.990Z,10
2023-04-15T09:14:44.359Z,10.1
2023-04-15T09:15:44.742Z,10
2023-04-15T09:16:45.287Z,10.1
2023-04-15T09:17:45.816Z,10.1
2023-04-15T09:18:46.250Z,10.2
2023-04-15T09:19:46.653Z,10.2
2023-04-15T09:20:47.031Z,10.2
2023-04-15T09:21:47.521Z,10.1
2023-04-15T09:22:47.915Z,10.1
2023-04-15T09:23:48.309Z,10.1
2023-04-15T09:24:48.699Z,10.1
2023-04-15T09:25:49.088Z,10
2023-04-15T09:26:49.456Z,10
2023-04-15T09:27:49.810Z,10
2023-04-15T09:28:50.193Z,10
2023-04-15T09:29:50.590Z,10.1
2023-04-15T09:30:51.127Z,10.1
2023-04-15T09:31:51.556Z,10.1
2023-04-15T09:32:52.041Z,10.1
2023-04-15T09:33:52.472Z,10.2
2023-04-15T09:34:52.852Z,10.2
2023-04-15T09:35:53.260Z,10.3
2023-04-15T09:36:53.751Z,10.3
2023-04-15T09:37:54.184Z,10.4
2023-04-15T09:38:54.559Z,10.5
2023-04-15T09:39:54.941Z,10.5
2023-04-15T09:40:55.332Z,10.4
2023-04-15T09:41:55.690Z,10.3
2023-04-15T09:42:56.058Z,10.3
2023-04-15T09:43:56.432Z,10.3
2023-04-15T09:44:56.810Z,10.3
2023-04-15T09:45:57.221Z,10.4
2023-04-15T09:46:57.644Z,10.4
2023-04-15T09:47:59.112Z,10.4
2023-04-15T09:48:59.695Z,10.5
2023-04-15T09:50:00.162Z,10.5
2023-04-15T09:51:00.707Z,10.5
2023-04-15T09:52:05.752Z,10.5
2023-04-15T09:53:06.800Z,10.5
2023-04-15T09:54:07.187Z,10.4
2023-04-15T09:55:07.567Z,10.4
2023-04-15T09:56:08.145Z,10.4
2023-04-15T09:57:08.574Z,10.4
2023-04-15T09:58:08.975Z,10.4
2023-04-15T09:59:09.369Z,10.5
2023-04-15T10:00:09.762Z,10.5
2023-04-15T10:01:10.197Z,10.5
2023-04-15T10:02:10.786Z,10.5
2023-04-15T10:03:11.381Z,10.4
2023-04-15T10:04:11.931Z,10.4
2023-04-15T10:05:12.364Z,10.4
2023-04-15T10:06:12.749Z,10.4
2023-04-15T10:07:13.244Z,10.4
2023-04-15T10:08:13.618Z,10.4
2023-04-15T10:09:14.004Z,10.4
2023-04-15T10:10:14.406Z,10.5
2023-04-15T10:11:14.796Z,10.5
2023-04-15T10:12:15.228Z,10.6
2023-04-15T10:13:15.623Z,10.6
2023-04-15T10:14:16.018Z,10.6
2023-04-15T10:15:16.453Z,10.6
2023-04-15T10:16:16.946Z,10.7
2023-04-15T10:17:17.494Z,10.7
2023-04-15T10:18:17.878Z,10.7
2023-04-15T10:19:18.264Z,10.7
2023-04-15T10:20:18.650Z,10.7
2023-04-15T10:21:19.036Z,10.7
2023-04-15T10:22:19.438Z,10.7
2023-04-15T10:23:19.815Z,10.7
2023-04-15T10:24:20.203Z,10.7
2023-04-15T10:25:20.629Z,10.7
2023-04-15T10:26:21.046Z,10.7
2023-04-15T10:27:21.443Z,10.7
2023-04-15T10:28:21.825Z,10.7
2023-04-15T10:29:22.222Z,10.8
2023-04-15T10:30:22.617Z,10.7
2023-04-15T10:31:23.037Z,10.8
2023-04-15T10:32:23.486Z,10.8
2023-04-15T10:33:23.915Z,10.9
2023-04-15T10:34:24.303Z,10.9
2023-04-15T10:35:24.685Z,10.8
2023-04-15T10:36:25.076Z,10.8
2023-04-15T10:37:25.556Z,10.8
2023-04-15T10:38:25.936Z,10.9
2023-04-15T10:39:26.328Z,10.9
2023-04-15T10:40:26.712Z,10.9
2023-04-15T10:41:27.084Z,11
2023-04-15T10:42:27.584Z,11
2023-04-15T10:43:27.994Z,11
2023-04-15T10:44:28.394Z,11
2023-04-15T10:45:28.777Z,11
2023-04-15T10:46:29.198Z,11
2023-04-15T10:47:29.648Z,11
2023-04-15T10:48:30.050Z,11
2023-04-15T10:49:30.439Z,11.1
2023-04-15T10:50:30.817Z,11.1
2023-04-15T10:51:31.211Z,11.1
2023-04-15T10:52:31.617Z,11.1
2023-04-15T10:53:32.035Z,11
2023-04-15T10:54:32.428Z,11
2023-04-15T10:55:32.822Z,10.9
2023-04-15T10:56:33.222Z,10.8
2023-04-15T10:57:33.627Z,10.8
2023-04-15T10:58:34.027Z,10.9
2023-04-15T10:59:34.395Z,11
2023-04-15T11:00:34.766Z,11.2
2023-04-15T11:01:35.192Z,11.3
2023-04-15T11:02:35.845Z,11.4
2023-04-15T11:03:36.419Z,11.3
2023-04-15T11:04:36.921Z,11.3
2023-04-15T11:05:37.372Z,11.5
2023-04-15T11:06:37.772Z,11.6
2023-04-15T11:07:38.245Z,11.7
2023-04-15T11:08:38.626Z,11.7
2023-04-15T11:09:39.014Z,11.5
2023-04-15T11:10:39.404Z,11.6
2023-04-15T11:11:39.801Z,11.6
2023-04-15T11:12:40.211Z,11.6
2023-04-15T11:13:40.595Z,11.6
2023-04-15T11:14:40.974Z,11.6
2023-04-15T11:15:41.369Z,11.6
2023-04-15T11:16:41.797Z,11.5
2023-04-15T11:17:42.764Z,11.3
2023-04-15T11:18:44.036Z,11.2
2023-04-15T11:19:44.429Z,11.2
2023-04-15T11:20:44.812Z,11.1
2023-04-15T11:21:45.202Z,11.1
2023-04-15T11:22:45.732Z,11.1
2023-04-15T11:23:46.109Z,11.1
2023-04-15T11:24:46.501Z,11.1
2023-04-15T11:25:46.911Z,11.1
2023-04-15T11:26:47.318Z,11.1
2023-04-15T11:27:47.821Z,11.1
2023-04-15T11:28:48.243Z,11.1
2023-04-15T11:29:48.663Z,11.1
2023-04-15T11:30:49.061Z,11.1
2023-04-15T11:31:49.521Z,11.2
2023-04-15T11:32:50.235Z,11.3
2023-04-15T11:33:50.627Z,11.3
2023-04-15T11:34:51.018Z,11.4
2023-04-15T11:35:51.414Z,11.6
2023-04-15T11:36:51.788Z,11.7
2023-04-15T11:37:52.313Z,11.8
2023-04-15T11:38:52.697Z,11.8
2023-04-15T11:39:53.074Z,11.9
2023-04-15T11:40:53.453Z,11.9
2023-04-15T11:41:53.850Z,11.9
2023-04-15T11:42:54.276Z,11.8
2023-04-15T11:43:54.691Z,11.8
2023-04-15T11:44:55.076Z,11.8
2023-04-15T11:45:55.561Z,11.7
2023-04-15T11:46:56.084Z,11.6
2023-04-15T11:47:56.598Z,11.3
2023-04-15T11:48:57.046Z,11.2
2023-04-15T11:49:57.410Z,11.1
2023-04-15T11:50:57.815Z,10.9
2023-04-15T11:51:58.218Z,10.9
2023-04-15T11:52:58.723Z,10.8
2023-04-15T11:53:59.107Z,10.8
2023-04-15T11:54:59.499Z,10.8
2023-04-15T11:55:59.904Z,10.8
2023-04-15T11:57:00.353Z,10.8
2023-04-15T11:58:00.752Z,10.8
2023-04-15T11:59:01.166Z,10.8
2023-04-15T12:00:01.586Z,10.8
2023-04-15T12:01:01.982Z,10.8
2023-04-15T12:02:02.493Z,10.8
2023-04-15T12:03:03.236Z,10.8
2023-04-15T12:04:04.342Z,10.7
2023-04-15T12:05:05.292Z,10.7
2023-04-15T12:06:05.727Z,10.7
2023-04-15T12:07:06.115Z,10.7
2023-04-15T12:08:06.620Z,10.7
2023-04-15T12:09:06.995Z,10.7
2023-04-15T12:10:07.393Z,10.8
2023-04-15T12:11:07.774Z,10.9
2023-04-15T12:12:08.188Z,10.9
2023-04-15T12:13:08.621Z,10.9
2023-04-15T12:14:09.025Z,10.9
2023-04-15T12:15:09.381Z,10.9
2023-04-15T12:16:09.824Z,10.8
2023-04-15T12:17:10.260Z,10.8
2023-04-15T12:18:10.753Z,10.7
2023-04-15T12:19:11.180Z,10.7
2023-04-15T12:20:11.575Z,10.7
2023-04-15T12:21:11.965Z,10.7
2023-04-15T12:22:12.354Z,10.7
2023-04-15T12:23:12.822Z,10.7
2023-04-15T12:24:13.207Z,10.7
2023-04-15T12:25:13.596Z,10.7
2023-04-15T12:26:13.988Z,10.7
2023-04-15T12:27:14.366Z,10.8
2023-04-15T12:28:14.773Z,10.8
2023-04-15T12:29:15.164Z,10.8
2023-04-15T12:30:15.560Z,10.7
2023-04-15T12:31:15.990Z,10.6
2023-04-15T12:32:16.414Z,10.6
2023-04-15T12:33:16.840Z,10.6
2023-04-15T12:34:17.230Z,10.6
2023-04-15T12:35:17.616Z,10.6
2023-04-15T12:36:17.986Z,10.6
2023-04-15T12:37:18.354Z,10.6
2023-04-15T12:38:18.768Z,10.6
2023-04-15T12:39:19.153Z,10.6
2023-04-15T12:40:19.543Z,10.5
2023-04-15T12:41:19.936Z,10.5
2023-04-15T12:42:20.325Z,10.4
2023-04-15T12:43:20.746Z,10.4
2023-04-15T12:44:21.130Z,10.4
2023-04-15T12:45:21.525Z,10.4
2023-04-15T12:46:21.926Z,10.4
2023-04-15T12:47:22.345Z,10.4
2023-04-15T12:48:22.867Z,10.4
2023-04-15T12:49:23.264Z,10.4
2023-04-15T12:50:23.652Z,10.4
2023-04-15T12:51:24.033Z,10.4
2023-04-15T12:52:24.433Z,10.4
2023-04-15T12:53:24.843Z,10.3
2023-04-15T12:54:25.226Z,10.3
2023-04-15T12:55:25.602Z,10.2
2023-04-15T12:56:26.012Z,10.1
2023-04-15T12:57:26.439Z,10.1
2023-04-15T12:58:26.846Z,10
2023-04-15T12:59:27.240Z,10
2023-04-15T13:00:27.584Z,10
2023-04-15T13:01:27.974Z,10
2023-04-15T13:02:28.559Z,10.1
2023-04-15T13:03:29.304Z,10.1
2023-04-15T13:04:29.828Z,10.1
2023-04-15T13:05:30.229Z,10.2
2023-04-15T13:06:30.628Z,10.2
2023-04-15T13:07:31.014Z,10.2
2023-04-15T13:08:31.426Z,10.3
2023-04-15T13:09:31.801Z,10.3
2023-04-15T13:10:32.180Z,10.2
2023-04-15T13:11:32.572Z,10.2
2023-04-15T13:12:32.981Z,10.2
2023-04-15T13:13:33.498Z,10.1
2023-04-15T13:14:33.873Z,10.1
2023-04-15T13:15:34.270Z,10.1
2023-04-15T13:16:34.720Z,10.1
2023-04-15T13:17:35.194Z,10.2
2023-04-15T13:18:35.733Z,10.2
2023-04-15T13:19:36.122Z,10.2
2023-04-15T13:20:36.493Z,10.2
2023-04-15T13:21:36.875Z,10.2
2023-04-15T13:22:37.231Z,10.3
2023-04-15T13:23:37.628Z,10.3
2023-04-15T13:24:38.009Z,10.3
2023-04-15T13:25:38.402Z,10.3
2023-04-15T13:26:38.788Z,10.3
2023-04-15T13:27:39.203Z,10.3
2023-04-15T13:28:39.743Z,10.3
2023-04-15T13:29:40.138Z,10.3
2023-04-15T13:30:40.533Z,10.3
2023-04-15T13:31:40.968Z,10.3
2023-04-15T13:32:41.410Z,10.2
2023-04-15T13:33:41.917Z,10.2
2023-04-15T13:34:42.294Z,10.2
2023-04-15T13:35:42.671Z,10.1
2023-04-15T13:36:43.066Z,10.1
2023-04-15T13:37:43.452Z,10.1
2023-04-15T13:38:43.853Z,10
2023-04-15T13:39:44.230Z,10
2023-04-15T13:40:44.606Z,10
2023-04-15T13:41:44.993Z,10
2023-04-15T13:42:45.368Z,9.9
2023-04-15T13:43:45.766Z,9.9
2023-04-15T13:44:46.140Z,9.9
2023-04-15T13:45:46.569Z,9.9
2023-04-15T13:46:46.997Z,9.9
2023-04-15T13:47:47.466Z,9.9